createdAt,value
2023-02-28T00:00:29.658Z,27.03
2023-02-28T00:02:57.500Z,28.01
2023-02-28T00:05:27.298Z,28.21
2023-02-28T00:07:56.061Z,29.11
2023-02-28T00:10:27.808Z,28.96
2023-02-28T00:12:58.156Z,29.19
2023-02-28T00:15:26.573Z,29.58
2023-02-28T00:17:54.740Z,29.90
2023-02-28T00:20:22.875Z,29.78
2023-02-28T00:22:53.075Z,29.74
2023-02-28T00:25:25.728Z,29.86
2023-02-28T00:27:53.977Z,30.63
2023-02-28T00:30:24.507Z,30.52
2023-02-28T00:32:52.765Z,30.83
2023-02-28T00:35:20.676Z,31.10
2023-02-28T00:37:50.912Z,31.63
2023-02-28T00:40:18.952Z,31.77
2023-02-28T00:42:46.817Z,31.78
2023-02-28T00:45:14.567Z,31.32
2023-02-28T00:47:42.440Z,32.52
2023-02-28T00:50:11.581Z,32.43
2023-02-28T00:52:39.401Z,32.58
2023-02-28T00:55:07.367Z,32.45
2023-02-28T00:57:35.296Z,32.99
2023-02-28T01:00:04.789Z,32.95
2023-02-28T01:02:32.610Z,32.00
2023-02-28T01:05:00.573Z,31.55
2023-02-28T01:07:32.666Z,31.39
2023-02-28T01:10:00.527Z,31.33
2023-02-28T01:12:30.801Z,31.23
2023-02-28T01:14:59.128Z,31.00
2023-02-28T01:17:27.615Z,31.64
2023-02-28T01:19:57.273Z,31.73
2023-02-28T01:22:26.598Z,31.91
2023-02-28T01:24:54.734Z,31.46
2023-02-28T01:27:22.668Z,31.51
2023-02-28T01:29:52.917Z,31.22
2023-02-28T01:32:20.928Z,30.70
2023-02-28T01:34:49.000Z,30.44
2023-02-28T01:37:16.814Z,30.31
2023-02-28T01:39:45.448Z,30.34
2023-02-28T01:42:13.507Z,29.77
2023-02-28T01:45:02.366Z,29.47
2023-02-28T01:47:34.743Z,29.52
2023-02-28T01:50:05.955Z,29.46
2023-02-28T01:52:35.610Z,29.20
2023-02-28T01:55:07.994Z,29.83
2023-02-28T01:57:42.918Z,29.16
2023-02-28T02:00:21.693Z,29.32
2023-02-28T02:02:54.603Z,29.07
2023-02-28T02:05:26.591Z,28.77
2023-02-28T02:07:59.531Z,29.40
2023-02-28T02:10:35.246Z,29.15
2023-02-28T02:13:26.541Z,28.96
2023-02-28T02:16:25.486Z,28.70
2023-02-28T02:19:02.647Z,28.75
2023-02-28T02:21:42.809Z,28.79
2023-02-28T02:24:15.144Z,29.10
2023-02-28T02:26:56.136Z,29.02
2023-02-28T02:29:42.764Z,28.98
2023-02-28T02:32:44.881Z,29.20
2023-02-28T02:35:19.857Z,28.90
2023-02-28T02:38:07.881Z,28.75
2023-02-28T02:41:02.663Z,28.67
2023-02-28T02:43:46.267Z,28.42
2023-02-28T02:46:20.404Z,28.04
2023-02-28T02:48:49.557Z,29.06
2023-02-28T02:51:22.519Z,28.60
2023-02-28T02:53:59.155Z,28.71
2023-02-28T02:56:33.191Z,28.80
2023-02-28T02:59:06.400Z,28.61
2023-02-28T03:01:37.036Z,28.89
2023-02-28T03:04:10.210Z,28.95
2023-02-28T03:06:39.706Z,29.04
2023-02-28T03:09:07.492Z,29.10
2023-02-28T03:11:37.933Z,28.95
2023-02-28T03:14:21.395Z,28.81
2023-02-28T03:16:58.551Z,28.71
2023-02-28T03:19:39.620Z,28.79
2023-02-28T03:22:40.932Z,28.88
2023-02-28T03:25:29.438Z,29.11
2023-02-28T03:28:21.569Z,29.02
2023-02-28T03:30:58.871Z,29.17
2023-02-28T03:33:33.896Z,28.80
2023-02-28T03:36:21.101Z,29.08
2023-02-28T03:38:57.671Z,29.00
2023-02-28T03:41:34.274Z,28.99
2023-02-28T03:44:08.325Z,28.90
2023-02-28T03:46:42.378Z,28.79
2023-02-28T03:49:24.343Z,28.62
2023-02-28T03:51:55.677Z,29.33
2023-02-28T03:54:29.688Z,28.63
2023-02-28T03:57:07.809Z,28.70
2023-02-28T03:59:47.795Z,28.55
2023-02-28T04:02:15.813Z,28.71
2023-02-28T04:04:49.750Z,28.53
2023-02-28T04:07:18.698Z,28.28
2023-02-28T04:09:46.816Z,28.37
2023-02-28T04:12:14.689Z,28.52
2023-02-28T04:14:42.428Z,27.76
2023-02-28T04:17:10.225Z,28.73
2023-02-28T04:19:38.264Z,28.29
2023-02-28T04:22:06.091Z,28.59
2023-02-28T04:24:33.898Z,28.54
2023-02-28T04:27:01.785Z,28.54
2023-02-28T04:29:35.603Z,28.69
2023-02-28T04:32:04.503Z,29.13
2023-02-28T04:34:33.692Z,29.24
2023-02-28T04:37:12.963Z,28.98
2023-02-28T04:39:43.031Z,29.05
2023-02-28T04:42:11.625Z,29.03
2023-02-28T04:44:39.455Z,29.00
2023-02-28T04:47:07.330Z,29.10
2023-02-28T04:49:35.140Z,28.48
2023-02-28T04:52:03.645Z,29.31
2023-02-28T04:54:31.663Z,29.20
2023-02-28T04:56:59.375Z,29.07
2023-02-28T04:59:27.418Z,28.70
2023-02-28T05:01:55.280Z,28.58
2023-02-28T05:04:23.199Z,28.38
2023-02-28T05:06:51.103Z,28.38
2023-02-28T05:09:19.124Z,28.17
2023-02-28T05:11:46.947Z,28.21
2023-02-28T05:14:16.183Z,27.80
2023-02-28T05:16:44.001Z,27.82
2023-02-28T05:19:11.865Z,28.12
2023-02-28T05:21:42.243Z,28.54
2023-02-28T05:24:13.678Z,28.57
2023-02-28T05:26:43.836Z,28.68
2023-02-28T05:29:11.850Z,28.76
2023-02-28T05:31:41.811Z,28.77
2023-02-28T05:34:12.471Z,28.94
2023-02-28T05:36:40.875Z,29.11
2023-02-28T05:39:13.831Z,28.88
2023-02-28T05:41:43.458Z,28.70
2023-02-28T05:44:13.340Z,28.61
2023-02-28T05:46:41.370Z,28.58
2023-02-28T05:49:09.229Z,28.76
2023-02-28T05:51:41.128Z,29.49
2023-02-28T05:54:09.277Z,29.69
2023-02-28T05:56:41.053Z,29.91
2023-02-28T05:59:09.237Z,30.40
2023-02-28T06:01:51.604Z,31.32
2023-02-28T06:04:32.614Z,32.03
2023-02-28T06:07:00.361Z,31.56
2023-02-28T06:09:28.151Z,31.41
2023-02-28T06:11:58.510Z,31.02
2023-02-28T06:14:26.633Z,31.32
2023-02-28T06:16:54.618Z,30.79
2023-02-28T06:19:24.046Z,31.20
2023-02-28T06:21:53.680Z,30.08
2023-02-28T06:24:22.416Z,30.21
2023-02-28T06:26:51.064Z,29.35
2023-02-28T06:29:19.450Z,29.33
2023-02-28T06:31:48.071Z,29.92
2023-02-28T06:34:16.352Z,29.73
2023-02-28T06:36:50.573Z,29.51
2023-02-28T06:39:18.760Z,29.33
2023-02-28T06:41:55.481Z,28.95
2023-02-28T06:44:24.275Z,34.00
2023-02-28T06:46:54.743Z,31.40
2023-02-28T06:49:24.143Z,29.71
2023-02-28T06:51:51.874Z,29.38
2023-02-28T06:54:19.575Z,28.91
2023-02-28T06:56:48.144Z,29.71
2023-02-28T06:59:16.055Z,29.60
2023-02-28T07:01:44.548Z,29.34
2023-02-28T07:04:14.394Z,28.57
2023-02-28T07:06:42.530Z,28.85
2023-02-28T07:09:12.723Z,28.77
2023-02-28T07:11:42.450Z,28.20
2023-02-28T07:14:11.031Z,28.40
2023-02-28T07:16:38.923Z,28.62
2023-02-28T07:19:07.073Z,28.37
2023-02-28T07:21:35.601Z,28.44
2023-02-28T07:24:03.663Z,28.47
2023-02-28T07:26:31.382Z,28.58
2023-02-28T07:28:59.205Z,28.43
2023-02-28T07:31:27.206Z,28.60
2023-02-28T07:33:55.093Z,28.24
2023-02-28T07:36:23.090Z,28.79
2023-02-28T07:38:54.343Z,28.70
2023-02-28T07:41:24.656Z,28.75
2023-02-28T07:43:54.962Z,28.55
2023-02-28T07:46:22.899Z,28.59
2023-02-28T07:48:50.786Z,28.44
2023-02-28T07:51:20.461Z,28.95
2023-02-28T07:53:48.424Z,28.75
2023-02-28T07:56:16.237Z,28.54
2023-02-28T07:58:44.002Z,29.01
2023-02-28T08:01:12.701Z,29.14
2023-02-28T08:03:41.550Z,29.56
2023-02-28T08:06:17.616Z,30.00
2023-02-28T08:08:45.605Z,31.05
2023-02-28T08:11:13.522Z,38.05
2023-02-28T08:13:43.545Z,34.48
2023-02-28T08:16:12.377Z,32.93
2023-02-28T08:18:40.348Z,32.99
2023-02-28T08:21:11.722Z,32.71
2023-02-28T08:23:39.846Z,33.02
2023-02-28T08:26:08.074Z,32.92
2023-02-28T08:28:35.913Z,35.63
2023-02-28T08:31:10.218Z,36.06
2023-02-28T08:33:40.229Z,35.07
2023-02-28T08:36:10.395Z,34.23
2023-02-28T08:38:39.265Z,34.20
2023-02-28T08:41:10.621Z,34.13
2023-02-28T08:43:39.161Z,33.78
2023-02-28T08:46:08.727Z,34.02
2023-02-28T08:48:39.049Z,34.49
2023-02-28T08:51:13.115Z,32.81
2023-02-28T08:53:41.539Z,32.03
2023-02-28T08:56:17.764Z,31.56
2023-02-28T08:58:47.256Z,31.80
2023-02-28T09:01:28.562Z,32.23
2023-02-28T09:06:27.222Z,32.33
2023-02-28T09:09:02.258Z,32.23
2023-02-28T09:11:30.295Z,31.91
2023-02-28T09:14:00.243Z,31.50
2023-02-28T09:16:28.061Z,31.05
2023-02-28T09:18:55.880Z,31.30
2023-02-28T09:21:24.703Z,30.87
2023-02-28T09:23:54.620Z,30.61
2023-02-28T09:26:32.509Z,30.83
2023-02-28T09:29:07.984Z,30.83
2023-02-28T09:31:35.893Z,31.01
2023-02-28T09:34:05.581Z,38.84
2023-02-28T09:36:45.300Z,39.00
2023-02-28T09:39:16.889Z,40.94
2023-02-28T09:41:51.724Z,34.60
2023-02-28T09:44:35.276Z,32.18
2023-02-28T09:47:31.362Z,30.93
2023-02-28T09:50:09.656Z,30.85
2023-02-28T09:52:37.983Z,31.14
2023-02-28T09:55:24.133Z,30.55
2023-02-28T09:57:53.224Z,30.76
2023-02-28T10:00:41.016Z,30.76
2023-02-28T10:03:35.366Z,30.88
2023-02-28T10:06:08.202Z,29.93
2023-02-28T10:08:46.837Z,29.93
2023-02-28T10:11:19.337Z,30.04
2023-02-28T10:14:15.618Z,29.87
2023-02-28T10:16:53.172Z,29.98
2023-02-28T10:19:43.532Z,29.76
2023-02-28T10:22:24.211Z,29.63
2023-02-28T10:24:54.071Z,30.24
2023-02-28T10:27:29.978Z,30.20
2023-02-28T10:30:01.624Z,30.11
2023-02-28T10:32:34.666Z,31.46
2023-02-28T10:35:24.387Z,30.31
2023-02-28T10:37:56.162Z,31.14
2023-02-28T10:40:24.138Z,30.67
2023-02-28T10:43:01.676Z,30.43
2023-02-28T10:45:35.992Z,30.29
2023-02-28T10:48:07.607Z,30.08
2023-02-28T10:50:51.777Z,29.97
2023-02-28T10:53:28.956Z,35.20
2023-02-28T10:56:10.332Z,34.41
2023-02-28T10:59:02.042Z,38.61
2023-02-28T11:01:42.356Z,40.27
2023-02-28T11:04:37.716Z,35.19
2023-02-28T11:07:24.525Z,36.80
2023-02-28T11:09:56.160Z,33.41
2023-02-28T11:12:43.404Z,35.61
2023-02-28T11:15:35.481Z,33.42
2023-02-28T11:18:14.059Z,35.23
2023-02-28T11:20:42.174Z,37.02
2023-02-28T11:23:14.953Z,34.26
2023-02-28T11:25:52.490Z,32.71
2023-02-28T11:28:33.610Z,33.33
2023-02-28T11:31:15.033Z,32.21
2023-02-28T11:33:57.827Z,35.46
2023-02-28T11:36:27.022Z,34.02
2023-02-28T11:38:57.930Z,31.86
2023-02-28T11:41:46.850Z,35.13
2023-02-28T11:44:20.686Z,33.47
2023-02-28T11:46:52.562Z,31.93
2023-02-28T11:49:23.507Z,33.29
2023-02-28T11:52:00.304Z,34.04
2023-02-28T11:54:32.231Z,30.52
2023-02-28T11:57:17.230Z,32.17
2023-02-28T12:00:46.336Z,32.73
2023-02-28T12:03:35.764Z,31.72
2023-02-28T12:06:30.751Z,32.65
2023-02-28T12:09:51.169Z,33.17
2023-02-28T12:12:49.335Z,33.89
2023-02-28T12:15:39.376Z,32.24
2023-02-28T12:18:37.469Z,31.80
2023-02-28T12:21:43.864Z,31.79
2023-02-28T12:24:50.331Z,33.83
2023-02-28T12:27:22.693Z,34.94
2023-02-28T12:30:02.098Z,35.28
2023-02-28T12:32:44.170Z,35.05
2023-02-28T12:35:17.768Z,33.91
2023-02-28T12:37:59.146Z,34.40
2023-02-28T12:40:45.795Z,34.70
2023-02-28T12:43:16.672Z,34.38
2023-02-28T12:45:53.325Z,34.27
2023-02-28T12:48:57.691Z,34.39
2023-02-28T12:51:27.809Z,34.38
2023-02-28T12:54:14.394Z,34.31
2023-02-28T12:56:49.108Z,33.43
2023-02-28T12:59:22.467Z,32.86
2023-02-28T13:01:58.396Z,33.65
2023-02-28T13:04:50.609Z,33.68
2023-02-28T13:07:21.290Z,33.51
2023-02-28T13:09:57.802Z,33.51
2023-02-28T13:12:28.301Z,33.08
2023-02-28T13:15:17.613Z,32.24
2023-02-28T13:17:50.806Z,33.45
2023-02-28T13:20:22.871Z,33.27
2023-02-28T13:23:15.192Z,33.33
2023-02-28T13:25:48.408Z,32.52
2023-02-28T13:28:57.108Z,32.44
2023-02-28T13:31:25.154Z,33.12
2023-02-28T13:34:00.677Z,32.58
2023-02-28T13:36:33.533Z,32.54
2023-02-28T13:39:05.213Z,32.33
2023-02-28T13:41:33.351Z,32.67
2023-02-28T13:44:12.219Z,46.45
2023-02-28T13:46:51.809Z,33.69
2023-02-28T13:49:32.852Z,32.37
2023-02-28T13:52:15.299Z,31.78
2023-02-28T13:54:52.198Z,32.51
2023-02-28T13:57:25.860Z,32.36
2023-02-28T13:59:56.472Z,30.73
2023-02-28T14:02:51.657Z,30.22
2023-02-28T14:05:26.778Z,30.84
2023-02-28T14:07:59.154Z,30.98
2023-02-28T14:10:31.951Z,31.32
2023-02-28T14:13:16.172Z,31.09
2023-02-28T14:16:00.922Z,31.19
2023-02-28T14:18:34.694Z,31.33
2023-02-28T14:21:08.471Z,30.89
2023-02-28T14:24:09.902Z,30.66
2023-02-28T14:27:15.291Z,30.57
2023-02-28T14:29:54.441Z,30.18
2023-02-28T14:32:34.118Z,30.33
2023-02-28T14:35:21.593Z,30.53
2023-02-28T14:37:50.790Z,30.61
2023-02-28T14:40:27.610Z,30.72
2023-02-28T14:42:58.753Z,30.56
2023-02-28T14:45:31.367Z,30.65
2023-02-28T14:48:00.800Z,30.52
2023-02-28T14:50:32.782Z,29.78
2023-02-28T14:53:00.403Z,29.84
2023-02-28T14:55:32.021Z,29.61
2023-02-28T14:58:07.576Z,30.54
2023-02-28T15:00:38.791Z,31.51
2023-02-28T15:03:22.818Z,31.73
2023-02-28T15:06:06.158Z,29.32
2023-02-28T15:08:37.293Z,29.44
2023-02-28T15:11:14.029Z,29.33
2023-02-28T15:13:48.811Z,29.32
2023-02-28T15:16:35.241Z,28.54
2023-02-28T15:19:07.760Z,28.69
2023-02-28T15:21:39.304Z,28.40
2023-02-28T15:24:43.406Z,28.36
2023-02-28T15:27:24.126Z,28.83
2023-02-28T15:29:57.418Z,28.40
2023-02-28T15:32:36.098Z,29.06
2023-02-28T15:35:25.904Z,28.47
2023-02-28T15:37:57.542Z,28.61
2023-02-28T15:40:32.431Z,28.13
2023-02-28T15:43:01.291Z,28.47
2023-02-28T15:45:39.635Z,28.19
2023-02-28T15:48:19.875Z,27.47
2023-02-28T15:51:02.825Z,27.79
2023-02-28T15:53:34.730Z,28.14
2023-02-28T15:56:15.675Z,27.94
2023-02-28T15:58:43.936Z,27.66
2023-02-28T16:01:21.816Z,27.58
2023-02-28T16:03:52.738Z,28.34
2023-02-28T16:06:36.809Z,28.43
2023-02-28T16:09:09.084Z,27.99
2023-02-28T16:12:01.003Z,28.02
2023-02-28T16:14:33.765Z,28.37
2023-02-28T16:17:09.962Z,29.51
2023-02-28T16:19:37.679Z,30.48
2023-02-28T16:22:05.408Z,29.21
2023-02-28T16:24:33.217Z,29.73
2023-02-28T16:27:01.923Z,29.83
2023-02-28T16:29:36.120Z,29.94
2023-02-28T16:32:06.693Z,29.50
2023-02-28T16:34:37.078Z,28.84
2023-02-28T16:37:11.890Z,29.26
2023-02-28T16:39:39.643Z,28.76
2023-02-28T16:42:08.154Z,29.02
2023-02-28T16:44:37.274Z,29.52
2023-02-28T16:47:05.921Z,30.22
2023-02-28T16:49:33.555Z,29.58
2023-02-28T16:52:01.323Z,29.46
2023-02-28T16:54:29.112Z,29.86
2023-02-28T16:56:56.996Z,30.03
2023-02-28T16:59:27.693Z,30.29
2023-02-28T17:01:58.827Z,29.24
2023-02-28T17:04:28.348Z,29.51
2023-02-28T17:06:56.094Z,29.34
2023-02-28T17:09:36.599Z,29.46
2023-02-28T17:12:10.586Z,29.59
2023-02-28T17:14:39.690Z,29.57
2023-02-28T17:17:08.443Z,29.75
2023-02-28T17:19:37.271Z,29.32
2023-02-28T17:22:05.157Z,29.33
2023-02-28T17:24:32.788Z,29.59
2023-02-28T17:27:01.154Z,28.94
2023-02-28T17:29:29.216Z,29.28
2023-02-28T17:31:58.969Z,29.41
2023-02-28T17:34:28.524Z,28.79
2023-02-28T17:36:56.372Z,28.69
2023-02-28T17:39:27.070Z,29.06
2023-02-28T17:41:56.350Z,28.89
2023-02-28T17:44:26.155Z,28.95
2023-02-28T17:46:55.906Z,29.60
2023-02-28T17:49:24.115Z,29.87
2023-02-28T17:51:51.785Z,29.43
2023-02-28T17:54:19.485Z,28.75
2023-02-28T17:56:47.582Z,29.75
2023-02-28T17:59:15.488Z,29.16
2023-02-28T18:01:43.401Z,29.93
2023-02-28T18:04:11.267Z,29.78
2023-02-28T18:06:47.452Z,29.24
2023-02-28T18:09:23.035Z,28.85
2023-02-28T18:11:52.803Z,29.12
2023-02-28T18:14:24.548Z,28.88
2023-02-28T18:16:54.256Z,28.62
2023-02-28T18:19:22.490Z,29.18
2023-02-28T18:21:52.960Z,28.86
2023-02-28T18:24:23.201Z,28.68
2023-02-28T18:26:51.803Z,28.16
2023-02-28T18:29:26.962Z,28.39
2023-02-28T18:31:56.531Z,29.22
2023-02-28T18:34:25.375Z,30.37
2023-02-28T18:36:53.665Z,31.20
2023-02-28T18:39:21.545Z,30.77
2023-02-28T18:41:50.152Z,29.13
2023-02-28T18:44:21.097Z,29.57
2023-02-28T18:46:50.609Z,30.05
2023-02-28T18:49:18.875Z,29.64
2023-02-28T18:51:48.018Z,29.22
2023-02-28T18:54:17.798Z,28.30
2023-02-28T18:56:46.249Z,28.57
2023-02-28T18:59:14.215Z,29.88
2023-02-28T19:01:42.424Z,30.17
2023-02-28T19:04:13.593Z,29.14
2023-02-28T19:06:42.399Z,29.43
2023-02-28T19:09:10.660Z,29.64
2023-02-28T19:11:38.730Z,29.46
2023-02-28T19:14:06.555Z,28.97
2023-02-28T19:16:34.509Z,28.99
2023-02-28T19:19:02.324Z,29.64
2023-02-28T19:21:30.378Z,30.64
2023-02-28T19:23:58.339Z,31.16
2023-02-28T19:26:26.991Z,30.36
2023-02-28T19:28:54.956Z,29.65
2023-02-28T19:31:26.747Z,29.15
2023-02-28T19:33:59.086Z,29.09
2023-02-28T19:36:27.788Z,29.07
2023-02-28T19:38:55.977Z,29.33
2023-02-28T19:41:25.074Z,29.29
2023-02-28T19:43:54.730Z,29.30
2023-02-28T19:46:22.712Z,28.99
2023-02-28T19:48:54.053Z,27.45
2023-02-28T19:51:22.714Z,27.74
2023-02-28T19:53:50.808Z,27.18
2023-02-28T19:56:18.501Z,27.04
2023-02-28T19:58:46.550Z,27.63
2023-02-28T20:01:16.741Z,27.67
2023-02-28T20:03:51.585Z,27.22
2023-02-28T20:06:20.876Z,26.85
2023-02-28T20:08:55.690Z,27.14
2023-02-28T20:11:26.308Z,27.88
2023-02-28T20:14:02.457Z,27.68
2023-02-28T20:16:31.367Z,27.87
2023-02-28T20:18:59.535Z,26.72
2023-02-28T20:21:27.547Z,26.84
2023-02-28T20:23:55.481Z,26.58
2023-02-28T20:26:23.264Z,27.32
2023-02-28T20:28:51.304Z,26.87
2023-02-28T20:31:22.389Z,26.77
2023-02-28T20:33:51.170Z,27.27
2023-02-28T20:36:23.000Z,26.95
2023-02-28T20:38:52.995Z,26.46
2023-02-28T20:41:21.523Z,27.06
2023-02-28T20:43:55.303Z,27.03
2023-02-28T20:46:23.176Z,27.05
2023-02-28T20:48:51.282Z,26.98
2023-02-28T20:51:19.824Z,26.62
2023-02-28T20:53:48.294Z,26.10
2023-02-28T20:56:19.206Z,27.06
2023-02-28T20:58:51.586Z,27.64
2023-02-28T21:01:26.345Z,27.81
2023-02-28T21:04:00.189Z,27.20
2023-02-28T21:06:32.381Z,27.01
2023-02-28T21:09:00.451Z,26.50
2023-02-28T21:11:31.608Z,26.65
2023-02-28T21:14:01.435Z,26.53
2023-02-28T21:16:32.399Z,26.88
2023-02-28T21:19:06.015Z,26.93
2023-02-28T21:21:40.003Z,27.34
2023-02-28T21:24:08.070Z,27.60
2023-02-28T21:26:36.075Z,27.45
2023-02-28T21:29:04.084Z,27.44
2023-02-28T21:31:35.859Z,26.46
2023-02-28T21:34:08.688Z,31.07
2023-02-28T21:36:40.317Z,28.20
2023-02-28T21:39:13.406Z,27.18
2023-02-28T21:41:42.080Z,27.97
2023-02-28T21:44:19.155Z,28.12
2023-02-28T21:46:47.962Z,27.18
2023-02-28T21:49:16.597Z,27.31
2023-02-28T21:51:44.924Z,26.87
2023-02-28T21:54:19.190Z,26.51
2023-02-28T21:56:47.146Z,26.65
2023-02-28T21:59:15.186Z,25.84
2023-02-28T22:01:44.863Z,27.05
2023-02-28T22:04:21.695Z,26.23
2023-02-28T22:07:00.047Z,26.97
2023-02-28T22:09:28.683Z,27.13
2023-02-28T22:11:58.838Z,26.76
2023-02-28T22:14:27.076Z,26.88
2023-02-28T22:16:56.999Z,26.68
2023-02-28T22:19:27.668Z,26.96
2023-02-28T22:21:56.354Z,26.49
2023-02-28T22:24:25.368Z,27.50
2023-02-28T22:26:53.741Z,26.73
2023-02-28T22:29:22.282Z,27.33
2023-02-28T22:31:50.750Z,27.04
2023-02-28T22:34:20.031Z,26.86
2023-02-28T22:36:47.817Z,25.99
2023-02-28T22:39:16.603Z,26.91
2023-02-28T22:41:44.612Z,27.01
2023-02-28T22:44:12.627Z,26.48
2023-02-28T22:46:40.657Z,26.14
2023-02-28T22:49:08.649Z,26.59
2023-02-28T22:51:36.752Z,26.69
2023-02-28T22:54:04.913Z,26.20
2023-02-28T22:56:33.278Z,26.11
2023-02-28T22:59:02.470Z,27.39
2023-02-28T23:01:34.012Z,26.41
2023-02-28T23:04:03.099Z,27.81
2023-02-28T23:06:42.457Z,26.50
2023-02-28T23:09:18.551Z,26.95
2023-02-28T23:11:49.566Z,26.87
2023-02-28T23:14:19.230Z,26.58
2023-02-28T23:16:49.881Z,26.91
2023-02-28T23:19:22.205Z,26.28
2023-02-28T23:21:50.316Z,26.42
2023-02-28T23:24:21.337Z,26.43
2023-02-28T23:26:54.060Z,26.10
2023-02-28T23:29:23.486Z,26.17
2023-02-28T23:31:52.683Z,25.63
2023-02-28T23:34:26.813Z,26.04
2023-02-28T23:36:56.028Z,26.53
2023-02-28T23:39:25.693Z,26.50
2023-02-28T23:41:53.944Z,26.27
2023-02-28T23:44:21.965Z,26.39
2023-02-28T23:46:52.488Z,26.34
2023-02-28T23:49:21.174Z,26.13
2023-02-28T23:51:51.808Z,25.93
2023-02-28T23:54:19.978Z,26.53
2023-02-28T23:56:48.154Z,26.63
2023-02-28T23:59:18.058Z,26.69
